createdAt,value
2022-10-20T00:00:32.894Z,17.70
2022-10-20T00:01:32.887Z,17.70
2022-10-20T00:02:32.959Z,17.50
2022-10-20T00:03:32.901Z,20.10
2022-10-20T00:04:32.863Z,15.50
2022-10-20T00:05:32.850Z,16.80
2022-10-20T00:06:32.848Z,14.40
2022-10-20T00:07:32.839Z,15.80
2022-10-20T00:08:32.904Z,15.90
2022-10-20T00:09:32.824Z,14.80
2022-10-20T00:10:32.817Z,11.90
2022-10-20T00:11:32.811Z,11.30
2022-10-20T00:12:32.987Z,12.40
2022-10-20T00:13:32.821Z,9.80
2022-10-20T00:14:32.783Z,11.60
2022-10-20T00:15:32.773Z,13.40
2022-10-20T00:16:32.769Z,14.80
2022-10-20T00:17:32.761Z,10.10
2022-10-20T00:18:32.777Z,9.90
2022-10-20T00:19:32.742Z,9.80
2022-10-20T00:20:32.735Z,11.90
2022-10-20T00:21:32.727Z,14.50
2022-10-20T00:22:32.866Z,12.10
2022-10-20T00:23:32.748Z,14.30
2022-10-20T00:24:32.708Z,17.50
2022-10-20T00:25:32.695Z,12.70
2022-10-20T00:26:32.686Z,12.50
2022-10-20T00:27:32.678Z,12.30
2022-10-20T00:28:32.669Z,14.80
2022-10-20T00:29:32.676Z,11.20
2022-10-20T00:30:33.651Z,13.90
2022-10-20T00:31:32.645Z,12.00
2022-10-20T00:32:32.966Z,12.20
2022-10-20T00:33:32.657Z,11.00
2022-10-20T00:34:32.622Z,11.60
2022-10-20T00:35:32.609Z,9.30
2022-10-20T00:36:32.602Z,13.10
2022-10-20T00:37:32.593Z,14.70
2022-10-20T00:38:32.611Z,10.70
2022-10-20T00:39:32.578Z,15.20
2022-10-20T00:40:32.573Z,11.50
2022-10-20T00:41:32.561Z,15.10
2022-10-20T00:42:32.857Z,12.10
2022-10-20T00:43:32.577Z,11.20
2022-10-20T00:44:32.542Z,12.60
2022-10-20T00:45:32.536Z,11.20
2022-10-20T00:46:32.519Z,13.40
2022-10-20T00:47:32.531Z,16.20
2022-10-20T00:48:32.534Z,10.30
2022-10-20T00:49:32.500Z,19.90
2022-10-20T00:50:32.493Z,12.70
2022-10-20T00:51:32.490Z,15.30
2022-10-20T00:52:32.672Z,11.70
2022-10-20T00:53:32.500Z,12.40
2022-10-20T00:54:32.462Z,16.70
2022-10-20T00:55:32.454Z,14.40
2022-10-20T00:56:32.447Z,12.70
2022-10-20T00:57:32.678Z,15.50
2022-10-20T00:58:32.457Z,14.80
2022-10-20T00:59:32.426Z,11.40
2022-10-20T01:00:32.414Z,13.60
2022-10-20T01:01:32.456Z,17.00
2022-10-20T01:02:32.406Z,15.20
2022-10-20T01:03:32.420Z,14.10
2022-10-20T01:04:32.390Z,15.40
2022-10-20T01:05:32.375Z,15.40
2022-10-20T01:06:32.374Z,13.70
2022-10-20T01:07:32.423Z,14.90
2022-10-20T01:08:32.421Z,14.50
2022-10-20T01:09:32.347Z,15.70
2022-10-20T01:10:32.345Z,17.50
2022-10-20T01:11:32.331Z,17.90
2022-10-20T01:12:32.323Z,13.00
2022-10-20T01:13:32.339Z,14.80
2022-10-20T01:14:32.308Z,11.00
2022-10-20T01:15:32.304Z,14.10
2022-10-20T01:16:32.289Z,15.70
2022-10-20T01:17:32.315Z,14.40
2022-10-20T01:18:32.316Z,14.30
2022-10-20T01:19:32.268Z,17.90
2022-10-20T01:20:32.257Z,14.30
2022-10-20T01:21:32.255Z,14.60
2022-10-20T01:22:32.246Z,16.90
2022-10-20T01:23:32.267Z,17.40
2022-10-20T01:24:32.236Z,18.00
2022-10-20T01:25:32.224Z,17.50
2022-10-20T01:26:32.214Z,16.80
2022-10-20T01:27:32.207Z,16.80
2022-10-20T01:28:32.234Z,17.00
2022-10-20T01:29:32.194Z,14.20
2022-10-20T01:30:32.189Z,16.30
2022-10-20T01:31:32.176Z,21.80
2022-10-20T01:32:32.172Z,16.90
2022-10-20T01:33:32.196Z,18.70
2022-10-20T01:34:32.156Z,19.40
2022-10-20T01:35:32.144Z,19.30
2022-10-20T01:36:32.141Z,16.10
2022-10-20T01:37:48.575Z,14.20
2022-10-20T01:38:34.158Z,21.70
2022-10-20T01:39:32.117Z,14.50
2022-10-20T01:40:32.118Z,14.80
2022-10-20T01:41:32.103Z,17.30
2022-10-20T01:42:32.171Z,18.60
2022-10-20T01:43:32.125Z,18.90
2022-10-20T01:44:32.087Z,17.60
2022-10-20T01:45:32.079Z,14.00
2022-10-20T01:46:32.073Z,16.80
2022-10-20T01:47:32.068Z,19.60
2022-10-20T01:48:32.058Z,16.80
2022-10-20T01:49:32.078Z,17.80
2022-10-20T01:50:32.048Z,18.70
2022-10-20T01:51:32.084Z,18.00
2022-10-20T01:52:32.027Z,17.10
2022-10-20T01:53:32.052Z,17.30
2022-10-20T01:54:32.017Z,16.90
2022-10-20T01:55:32.002Z,18.20
2022-10-20T01:56:31.996Z,20.40
2022-10-20T01:57:31.990Z,16.80
2022-10-20T01:58:31.978Z,16.30
2022-10-20T01:59:31.992Z,17.00
2022-10-20T02:00:31.960Z,17.90
2022-10-20T02:01:32.044Z,19.50
2022-10-20T02:02:31.949Z,17.60
2022-10-20T02:03:31.947Z,17.10
2022-10-20T02:04:31.956Z,18.10
2022-10-20T02:05:31.925Z,17.80
2022-10-20T02:06:31.914Z,19.40
2022-10-20T02:07:31.910Z,14.40
2022-10-20T02:08:32.038Z,18.00
2022-10-20T02:09:31.923Z,17.70
2022-10-20T02:10:31.893Z,19.20
2022-10-20T02:11:31.890Z,18.50
2022-10-20T02:12:31.873Z,20.40
2022-10-20T02:13:31.863Z,22.70
2022-10-20T02:14:31.886Z,22.60
2022-10-20T02:15:31.854Z,16.80
2022-10-20T02:16:31.848Z,17.50
2022-10-20T02:17:31.842Z,18.20
2022-10-20T02:18:31.831Z,16.20
2022-10-20T02:19:31.843Z,17.10
2022-10-20T02:20:31.821Z,18.20
2022-10-20T02:21:31.804Z,17.90
2022-10-20T02:22:31.798Z,20.30
2022-10-20T02:23:35.108Z,19.30
2022-10-20T02:24:33.806Z,16.80
2022-10-20T02:25:31.777Z,19.00
2022-10-20T02:26:31.768Z,19.20
2022-10-20T02:27:31.758Z,18.30
2022-10-20T02:28:31.755Z,23.60
2022-10-20T02:29:31.771Z,21.60
2022-10-20T02:30:31.734Z,17.90
2022-10-20T02:31:31.727Z,21.00
2022-10-20T02:32:31.716Z,18.80
2022-10-20T02:33:31.711Z,20.30
2022-10-20T02:34:31.733Z,18.70
2022-10-20T02:35:31.701Z,18.90
2022-10-20T02:36:31.693Z,17.20
2022-10-20T02:37:31.687Z,19.10
2022-10-20T02:38:31.677Z,19.20
2022-10-20T02:39:31.693Z,19.80
2022-10-20T02:40:31.664Z,22.70
2022-10-20T02:41:31.653Z,18.70
2022-10-20T02:42:31.690Z,20.20
2022-10-20T02:43:31.645Z,19.50
2022-10-20T02:44:31.667Z,20.40
2022-10-20T02:45:31.624Z,19.60
2022-10-20T02:46:31.612Z,19.50
2022-10-20T02:47:32.615Z,18.70
2022-10-20T02:48:31.606Z,19.20
2022-10-20T02:49:31.622Z,19.00
2022-10-20T02:50:31.590Z,18.50
2022-10-20T02:51:31.588Z,20.10
2022-10-20T02:52:31.576Z,18.10
2022-10-20T02:53:31.568Z,22.20
2022-10-20T02:54:31.585Z,16.80
2022-10-20T02:55:31.555Z,18.00
2022-10-20T02:56:31.545Z,20.60
2022-10-20T02:57:31.537Z,20.30
2022-10-20T02:58:31.548Z,21.10
2022-10-20T02:59:31.552Z,18.30
2022-10-20T03:00:31.519Z,19.10
2022-10-20T03:01:31.585Z,18.90
2022-10-20T03:02:31.503Z,18.90
2022-10-20T03:03:31.490Z,22.50
2022-10-20T03:04:31.511Z,20.80
2022-10-20T03:05:31.480Z,25.60
2022-10-20T03:06:31.474Z,15.80
2022-10-20T03:07:31.465Z,21.70
2022-10-20T03:08:31.571Z,20.20
2022-10-20T03:09:31.460Z,18.40
2022-10-20T03:10:32.442Z,18.70
2022-10-20T03:11:31.429Z,20.50
2022-10-20T03:12:32.290Z,19.40
2022-10-20T03:13:32.424Z,19.30
2022-10-20T03:14:31.431Z,18.40
2022-10-20T03:15:31.397Z,19.10
2022-10-20T03:16:31.393Z,24.00
2022-10-20T03:17:31.385Z,18.70
2022-10-20T03:18:31.377Z,18.20
2022-10-20T03:19:31.395Z,23.20
2022-10-20T03:20:31.357Z,21.10
2022-10-20T03:21:31.354Z,29.60
2022-10-20T03:22:31.351Z,19.60
2022-10-20T03:23:31.343Z,20.30
2022-10-20T03:24:31.358Z,21.50
2022-10-20T03:25:31.323Z,19.40
2022-10-20T03:26:31.314Z,17.90
2022-10-20T03:27:31.310Z,17.90
2022-10-20T03:28:31.313Z,21.70
2022-10-20T03:29:31.315Z,20.20
2022-10-20T03:30:31.307Z,21.00
2022-10-20T03:31:31.279Z,21.80
2022-10-20T03:32:31.273Z,18.10
2022-10-20T03:33:31.262Z,21.40
2022-10-20T03:34:31.279Z,20.00
2022-10-20T03:35:31.241Z,20.40
2022-10-20T03:36:32.239Z,17.30
2022-10-20T03:37:31.235Z,22.20
2022-10-20T03:38:31.225Z,23.00
2022-10-20T03:39:31.243Z,20.10
2022-10-20T03:40:31.213Z,20.50
2022-10-20T03:41:31.200Z,18.20
2022-10-20T03:42:31.193Z,21.20
2022-10-20T03:43:31.188Z,20.20
2022-10-20T03:44:31.206Z,21.30
2022-10-20T03:45:31.173Z,17.10
2022-10-20T03:46:31.170Z,20.80
2022-10-20T03:47:31.171Z,23.70
2022-10-20T03:48:31.151Z,16.10
2022-10-20T03:49:31.172Z,20.30
2022-10-20T03:50:31.139Z,17.70
2022-10-20T03:51:31.129Z,17.20
2022-10-20T03:52:31.123Z,20.60
2022-10-20T03:53:31.120Z,21.10
2022-10-20T03:54:31.141Z,20.10
2022-10-20T03:55:31.103Z,22.50
2022-10-20T03:56:31.104Z,20.00
2022-10-20T03:57:31.089Z,18.40
2022-10-20T03:58:31.088Z,19.20
2022-10-20T03:59:31.078Z,21.10
2022-10-20T04:00:31.093Z,21.00
2022-10-20T04:01:31.109Z,23.50
2022-10-20T04:02:31.056Z,25.20
2022-10-20T04:03:31.052Z,19.50
2022-10-20T04:04:31.027Z,20.10
2022-10-20T04:05:32.059Z,20.70
2022-10-20T04:06:31.032Z,21.50
2022-10-20T04:07:31.020Z,21.10
2022-10-20T04:08:31.062Z,21.40
2022-10-20T04:09:31.017Z,21.30
2022-10-20T04:10:31.022Z,20.80
2022-10-20T04:11:30.995Z,18.10
2022-10-20T04:12:30.989Z,22.00
2022-10-20T04:13:30.980Z,22.10
2022-10-20T04:14:30.974Z,19.50
2022-10-20T04:15:30.990Z,21.00
2022-10-20T04:16:30.956Z,21.60
2022-10-20T04:17:30.974Z,20.10
2022-10-20T04:18:30.928Z,23.20
2022-10-20T04:19:31.932Z,23.20
2022-10-20T04:20:30.959Z,20.70
2022-10-20T04:21:30.926Z,21.70
2022-10-20T04:22:30.915Z,23.60
2022-10-20T04:23:30.906Z,22.50
2022-10-20T04:24:30.897Z,21.00
2022-10-20T04:25:30.919Z,20.10
2022-10-20T04:26:30.881Z,24.20
2022-10-20T04:27:30.874Z,23.70
2022-10-20T04:28:30.868Z,20.50
2022-10-20T04:29:30.858Z,22.60
2022-10-20T04:30:30.876Z,21.40
2022-10-20T04:31:30.844Z,22.00
2022-10-20T04:32:30.839Z,19.50
2022-10-20T04:33:30.833Z,20.90
2022-10-20T04:34:30.823Z,19.70
2022-10-20T04:35:30.836Z,19.00
2022-10-20T04:36:30.809Z,20.90
2022-10-20T04:37:30.802Z,22.30
2022-10-20T04:38:30.793Z,23.00
2022-10-20T04:39:30.784Z,26.10
2022-10-20T04:40:30.805Z,29.30
2022-10-20T04:41:30.767Z,33.20
2022-10-20T04:42:30.758Z,59.20
2022-10-20T04:43:30.753Z,65.90
2022-10-20T04:44:30.746Z,78.70
2022-10-20T04:45:30.762Z,95.50
2022-10-20T04:46:30.724Z,102.90
2022-10-20T04:47:31.724Z,95.90
2022-10-20T04:48:30.718Z,91.70
2022-10-20T04:49:30.710Z,113.80
2022-10-20T04:50:30.766Z,172.80
2022-10-20T04:51:30.693Z,168.10
2022-10-20T04:52:30.688Z,110.90
2022-10-20T04:53:30.682Z,67.30
2022-10-20T04:54:30.675Z,46.00
2022-10-20T04:55:30.688Z,40.30
2022-10-20T04:56:30.654Z,33.10
2022-10-20T04:57:30.654Z,24.50
2022-10-20T04:58:30.642Z,26.00
2022-10-20T04:59:30.640Z,20.80
2022-10-20T05:00:30.658Z,25.80
2022-10-20T05:01:30.642Z,30.30
2022-10-20T05:02:30.618Z,30.70
2022-10-20T05:03:30.607Z,32.30
2022-10-20T05:04:30.605Z,33.40
2022-10-20T05:05:30.620Z,29.00
2022-10-20T05:06:30.588Z,34.90
2022-10-20T05:07:30.579Z,50.70
2022-10-20T05:08:30.630Z,63.30
2022-10-20T05:09:30.597Z,93.70
2022-10-20T05:10:34.417Z,96.10
2022-10-20T05:11:32.552Z,102.20
2022-10-20T05:12:30.542Z,105.70
2022-10-20T05:13:30.530Z,101.50
2022-10-20T05:14:30.523Z,98.30
2022-10-20T05:15:30.549Z,90.60
2022-10-20T05:16:30.521Z,81.00
2022-10-20T05:17:30.506Z,69.00
2022-10-20T05:18:30.494Z,43.20
2022-10-20T05:19:30.492Z,27.30
2022-10-20T05:20:36.789Z,24.60
2022-10-20T05:21:32.583Z,24.00
2022-10-20T05:22:30.469Z,20.50
2022-10-20T05:23:30.464Z,28.40
2022-10-20T05:24:30.458Z,27.10
2022-10-20T05:25:36.424Z,28.50
2022-10-20T05:26:32.440Z,21.20
2022-10-20T05:27:30.434Z,21.50
2022-10-20T05:28:30.431Z,23.10
2022-10-20T05:29:30.426Z,24.50
2022-10-20T05:30:30.459Z,23.60
2022-10-20T05:31:30.431Z,27.60
2022-10-20T05:32:30.406Z,30.10
2022-10-20T05:33:30.392Z,28.10
2022-10-20T05:34:30.380Z,28.80
2022-10-20T05:35:30.556Z,33.80
2022-10-20T05:36:30.374Z,29.60
2022-10-20T05:37:30.364Z,27.60
2022-10-20T05:38:30.355Z,24.80
2022-10-20T05:39:30.340Z,23.50
2022-10-20T05:40:30.360Z,25.10
2022-10-20T05:41:32.212Z,27.30
2022-10-20T05:42:30.328Z,21.10
2022-10-20T05:43:30.309Z,23.00
2022-10-20T05:44:30.309Z,26.60
2022-10-20T05:45:30.327Z,23.80
2022-10-20T05:46:30.292Z,21.50
2022-10-20T05:47:30.287Z,23.20
2022-10-20T05:48:30.276Z,25.10
2022-10-20T05:49:30.267Z,23.10
2022-10-20T05:50:30.288Z,21.90
2022-10-20T05:51:30.258Z,22.70
2022-10-20T05:52:30.241Z,21.50
2022-10-20T05:53:30.238Z,22.10
2022-10-20T05:54:30.236Z,21.40
2022-10-20T05:55:30.253Z,21.70
2022-10-20T05:56:30.219Z,28.60
2022-10-20T05:57:30.212Z,24.90
2022-10-20T05:58:30.202Z,22.70
2022-10-20T05:59:30.195Z,27.40
2022-10-20T06:00:30.333Z,28.60
2022-10-20T06:01:30.264Z,24.40
2022-10-20T06:02:30.173Z,26.50
2022-10-20T06:03:30.167Z,30.30
2022-10-20T06:04:30.164Z,24.50
2022-10-20T06:05:30.173Z,22.50
2022-10-20T06:06:30.144Z,27.00
2022-10-20T06:07:30.137Z,24.20
2022-10-20T06:08:30.146Z,23.40
2022-10-20T06:09:30.120Z,24.70
2022-10-20T06:10:30.147Z,22.60
2022-10-20T06:11:30.100Z,23.10
2022-10-20T06:12:30.096Z,24.10
2022-10-20T06:13:30.088Z,21.10
2022-10-20T06:14:30.085Z,22.70
2022-10-20T06:15:30.108Z,21.90
2022-10-20T06:16:30.069Z,19.60
2022-10-20T06:17:30.064Z,19.50
2022-10-20T06:18:30.054Z,21.00
2022-10-20T06:19:30.043Z,22.80
2022-10-20T06:20:30.035Z,17.30
2022-10-20T06:21:30.085Z,21.10
2022-10-20T06:22:30.022Z,19.90
2022-10-20T06:23:30.009Z,18.00
2022-10-20T06:24:30.005Z,16.20
2022-10-20T06:25:29.994Z,16.00
2022-10-20T06:26:30.067Z,16.60
2022-10-20T06:27:29.978Z,20.60
2022-10-20T06:28:29.970Z,18.00
2022-10-20T06:29:29.967Z,14.50
2022-10-20T06:30:29.945Z,15.80
2022-10-20T06:31:30.997Z,19.20
2022-10-20T06:32:29.941Z,15.40
2022-10-20T06:33:29.936Z,16.20
2022-10-20T06:34:29.921Z,12.60
2022-10-20T06:35:29.913Z,14.70
2022-10-20T06:36:29.929Z,13.10
2022-10-20T06:37:29.898Z,11.50
2022-10-20T06:38:29.892Z,11.90
2022-10-20T06:39:29.882Z,10.90
2022-10-20T06:40:29.878Z,12.10
2022-10-20T06:41:29.902Z,11.00
2022-10-20T06:42:29.864Z,8.90
2022-10-20T06:43:29.855Z,12.60
2022-10-20T06:44:29.848Z,8.20
2022-10-20T06:45:29.836Z,10.20
2022-10-20T06:46:29.853Z,12.10
2022-10-20T06:47:29.829Z,9.30
2022-10-20T06:48:29.822Z,8.20
2022-10-20T06:49:29.810Z,10.60
2022-10-20T06:50:29.812Z,8.70
2022-10-20T06:51:29.828Z,9.40
2022-10-20T06:52:29.784Z,9.20
2022-10-20T06:53:29.788Z,7.70
2022-10-20T06:54:29.769Z,11.60
2022-10-20T06:55:29.753Z,9.00
2022-10-20T06:56:29.783Z,10.90
2022-10-20T06:57:29.747Z,9.20
2022-10-20T06:58:29.750Z,9.90
2022-10-20T06:59:29.727Z,17.60
2022-10-20T07:01:29.798Z,198.80
2022-10-20T07:02:29.704Z,24.40
2022-10-20T07:03:29.703Z,18.60
2022-10-20T07:04:29.692Z,10.40
2022-10-20T07:05:29.689Z,9.90
2022-10-20T07:06:29.709Z,13.30
2022-10-20T07:07:29.694Z,9.00
2022-10-20T07:08:29.676Z,9.60
2022-10-20T07:09:29.654Z,12.30
2022-10-20T07:10:29.647Z,7.70
2022-10-20T07:11:29.658Z,10.80
2022-10-20T07:12:29.627Z,9.00
2022-10-20T07:13:29.624Z,8.20
2022-10-20T07:14:32.390Z,8.40
2022-10-20T07:15:30.603Z,9.20
2022-10-20T07:16:29.620Z,7.00
2022-10-20T07:17:29.587Z,8.70
2022-10-20T07:18:29.584Z,11.00
2022-10-20T07:19:29.571Z,11.20
2022-10-20T07:20:29.560Z,7.20
2022-10-20T07:21:32.659Z,9.00
2022-10-20T07:22:31.549Z,7.90
2022-10-20T07:23:29.537Z,9.70
2022-10-20T07:24:29.532Z,10.80
2022-10-20T07:25:29.527Z,9.40
2022-10-20T07:26:29.529Z,10.10
2022-10-20T07:27:30.510Z,6.80
2022-10-20T07:28:29.498Z,6.70
2022-10-20T07:29:29.573Z,6.20
2022-10-20T07:30:29.491Z,7.10
2022-10-20T07:31:29.505Z,9.50
2022-10-20T07:32:29.470Z,9.50
2022-10-20T07:33:29.465Z,10.90
2022-10-20T07:34:29.463Z,8.90
2022-10-20T07:35:29.446Z,10.20
2022-10-20T07:36:33.540Z,13.00
2022-10-20T07:37:31.430Z,20.00
2022-10-20T07:38:29.420Z,15.80
2022-10-20T07:39:29.417Z,8.60
2022-10-20T07:40:29.407Z,7.80
2022-10-20T07:41:29.438Z,11.80
2022-10-20T07:42:29.395Z,7.80
2022-10-20T07:43:29.388Z,10.00
2022-10-20T07:44:29.387Z,10.70
2022-10-20T07:45:29.365Z,11.10
2022-10-20T07:46:29.378Z,10.40
2022-10-20T07:47:29.346Z,11.60
2022-10-20T07:48:29.341Z,9.10
2022-10-20T07:49:45.263Z,6.70
2022-10-20T07:50:31.326Z,6.80
2022-10-20T07:51:29.322Z,8.20
2022-10-20T07:52:29.330Z,7.10
2022-10-20T07:53:29.297Z,9.20
2022-10-20T07:54:29.296Z,9.80
2022-10-20T07:55:38.709Z,9.20
2022-10-20T07:56:31.303Z,7.80
2022-10-20T07:57:29.272Z,6.40
2022-10-20T07:58:29.263Z,6.90
2022-10-20T07:59:29.254Z,6.30
2022-10-20T08:00:29.292Z,6.20
2022-10-20T08:01:29.263Z,7.30
2022-10-20T08:02:29.261Z,8.30
2022-10-20T08:03:29.224Z,7.90
2022-10-20T08:04:29.218Z,8.80
2022-10-20T08:05:29.208Z,6.70
2022-10-20T08:06:29.200Z,6.20
2022-10-20T08:07:29.215Z,6.80
2022-10-20T08:08:29.245Z,5.60
2022-10-20T08:09:29.222Z,5.50
2022-10-20T08:10:29.169Z,8.40
2022-10-20T08:11:29.160Z,7.60
2022-10-20T08:12:29.172Z,6.00
2022-10-20T08:13:29.139Z,6.90
2022-10-20T08:14:29.135Z,6.50
2022-10-20T08:15:29.146Z,7.60
2022-10-20T08:16:30.865Z,7.20
2022-10-20T08:17:29.135Z,8.10
2022-10-20T08:18:30.308Z,9.10
2022-10-20T08:19:35.305Z,9.30
2022-10-20T08:20:31.810Z,8.00
2022-10-20T08:21:29.109Z,7.90
2022-10-20T08:22:29.091Z,8.80
2022-10-20T08:23:29.058Z,8.10
2022-10-20T08:24:29.054Z,9.60
2022-10-20T08:25:29.052Z,8.20
2022-10-20T08:26:29.037Z,8.80
2022-10-20T08:27:29.079Z,7.30
2022-10-20T08:28:29.030Z,9.00
2022-10-20T08:29:29.018Z,8.40
2022-10-20T08:30:29.021Z,8.20
2022-10-20T08:31:29.012Z,7.30
2022-10-20T08:32:29.026Z,11.20
2022-10-20T08:33:28.989Z,7.20
2022-10-20T08:34:28.985Z,9.50
2022-10-20T08:35:28.983Z,8.50
2022-10-20T08:36:28.971Z,11.30
2022-10-20T08:37:28.984Z,10.30
2022-10-20T08:38:28.999Z,9.20
2022-10-20T08:39:28.942Z,9.70
2022-10-20T08:40:28.933Z,7.60
2022-10-20T08:41:34.578Z,7.80
2022-10-20T08:42:30.942Z,11.20
2022-10-20T08:43:28.924Z,9.50
2022-10-20T08:44:28.910Z,9.40
2022-10-20T08:45:28.896Z,7.70
2022-10-20T08:46:28.885Z,9.50
2022-10-20T08:47:32.333Z,12.20
2022-10-20T08:48:28.873Z,9.00
2022-10-20T08:49:28.891Z,8.00
2022-10-20T08:50:28.857Z,10.20
2022-10-20T08:51:28.853Z,9.40
2022-10-20T08:52:28.862Z,8.80
2022-10-20T08:53:28.825Z,9.00
2022-10-20T08:54:28.824Z,8.40
2022-10-20T08:55:28.816Z,11.70
2022-10-20T08:56:28.804Z,7.70
2022-10-20T08:57:28.845Z,13.80
2022-10-20T08:58:28.794Z,8.70
2022-10-20T08:59:28.801Z,6.00
2022-10-20T09:00:28.787Z,9.30
2022-10-20T09:01:28.843Z,8.80
2022-10-20T09:02:28.791Z,7.80
2022-10-20T09:03:28.758Z,6.90
2022-10-20T09:04:28.740Z,6.80
2022-10-20T09:05:28.732Z,5.90
2022-10-20T09:06:28.728Z,9.30
2022-10-20T09:07:28.747Z,10.00
2022-10-20T09:08:28.764Z,9.50
2022-10-20T09:09:28.703Z,7.20
2022-10-20T09:10:28.691Z,8.70
2022-10-20T09:11:28.689Z,9.00
2022-10-20T09:12:31.043Z,7.20
2022-10-20T09:13:29.669Z,7.70
2022-10-20T09:14:28.670Z,6.70
2022-10-20T09:15:28.649Z,10.30
2022-10-20T09:16:41.030Z,6.80
2022-10-20T09:17:29.663Z,6.40
2022-10-20T09:18:28.632Z,8.40
2022-10-20T09:19:28.622Z,11.10
2022-10-20T09:20:28.622Z,7.20
2022-10-20T09:21:28.609Z,6.30
2022-10-20T09:22:33.363Z,8.60
2022-10-20T09:23:42.170Z,8.60
2022-10-20T09:24:30.587Z,9.30
2022-10-20T09:25:28.581Z,7.10
2022-10-20T09:26:44.960Z,6.00
2022-10-20T09:27:30.589Z,9.40
2022-10-20T09:28:34.225Z,7.00
2022-10-20T09:29:29.551Z,8.80
2022-10-20T09:30:28.540Z,6.00
2022-10-20T09:31:28.533Z,7.30
2022-10-20T09:32:45.670Z,7.70
2022-10-20T09:33:30.520Z,7.50
2022-10-20T09:34:28.518Z,8.80
2022-10-20T09:35:28.530Z,9.80
2022-10-20T09:36:28.504Z,8.30
2022-10-20T09:37:28.538Z,6.70
2022-10-20T09:38:28.487Z,6.60
2022-10-20T09:39:28.469Z,5.90
2022-10-20T09:40:28.464Z,7.80
2022-10-20T09:41:28.466Z,6.30
2022-10-20T09:42:28.455Z,7.50
2022-10-20T09:43:28.468Z,7.30
2022-10-20T09:44:28.440Z,5.90
2022-10-20T09:45:28.430Z,5.60
2022-10-20T09:46:28.434Z,9.40
2022-10-20T09:47:28.413Z,8.70
2022-10-20T09:48:28.439Z,8.20
2022-10-20T09:49:28.404Z,11.00
2022-10-20T09:50:28.390Z,8.60
2022-10-20T09:51:28.384Z,6.10
2022-10-20T09:52:28.369Z,5.80
2022-10-20T09:53:28.393Z,8.60
2022-10-20T09:54:28.382Z,7.70
2022-10-20T09:55:28.345Z,8.20
2022-10-20T09:56:28.338Z,9.50
2022-10-20T09:57:28.333Z,7.70
2022-10-20T09:58:28.349Z,5.90
2022-10-20T09:59:28.343Z,7.70
2022-10-20T10:00:39.675Z,8.30
2022-10-20T10:01:30.333Z,9.80
2022-10-20T10:02:28.297Z,7.30
2022-10-20T10:03:28.357Z,6.70
2022-10-20T10:04:28.274Z,9.00
2022-10-20T10:05:28.265Z,8.20
2022-10-20T10:06:28.258Z,10.50
2022-10-20T10:07:28.250Z,8.90
2022-10-20T10:08:28.343Z,12.60
2022-10-20T10:09:28.249Z,8.80
2022-10-20T10:10:28.243Z,9.30
2022-10-20T10:11:28.219Z,11.40
2022-10-20T10:12:28.210Z,10.50
2022-10-20T10:13:28.231Z,9.50
2022-10-20T10:14:28.194Z,9.30
2022-10-20T10:15:28.187Z,12.40
2022-10-20T10:16:28.187Z,10.20
2022-10-20T10:17:28.172Z,9.30
2022-10-20T10:18:28.196Z,7.60
2022-10-20T10:19:28.152Z,9.10
2022-10-20T10:20:28.156Z,8.70
2022-10-20T10:21:28.146Z,12.30
2022-10-20T10:22:28.141Z,9.30
2022-10-20T10:23:28.154Z,9.80
2022-10-20T10:24:28.116Z,7.70
2022-10-20T10:25:28.123Z,9.10
2022-10-20T10:26:28.121Z,9.70
2022-10-20T10:27:28.097Z,8.40
2022-10-20T10:28:28.121Z,11.00
2022-10-20T10:29:28.078Z,10.40
2022-10-20T10:30:28.082Z,8.70
2022-10-20T10:31:28.062Z,8.60
2022-10-20T10:32:28.056Z,10.00
2022-10-20T10:33:28.067Z,9.10
2022-10-20T10:34:28.040Z,7.10
2022-10-20T10:35:28.027Z,9.30
2022-10-20T10:36:28.020Z,10.60
2022-10-20T10:37:29.728Z,8.40
2022-10-20T10:38:27.996Z,10.70
2022-10-20T10:39:28.021Z,10.40
2022-10-20T10:40:27.986Z,10.20
2022-10-20T10:41:27.977Z,10.30
2022-10-20T10:42:27.977Z,9.10
2022-10-20T10:43:27.955Z,9.00
2022-10-20T10:44:27.973Z,8.80
2022-10-20T10:45:27.946Z,10.10
2022-10-20T10:46:27.941Z,9.90
2022-10-20T10:47:27.929Z,11.30
2022-10-20T10:48:27.925Z,8.50
2022-10-20T10:49:27.933Z,11.80
2022-10-20T10:50:27.911Z,9.10
2022-10-20T10:51:27.898Z,6.70
2022-10-20T10:52:27.890Z,9.70
2022-10-20T10:53:27.887Z,10.90
2022-10-20T10:54:27.906Z,6.90
2022-10-20T10:55:47.848Z,9.20
2022-10-20T10:56:29.859Z,11.20
2022-10-20T10:57:27.856Z,10.20
2022-10-20T10:58:27.842Z,9.50
2022-10-20T10:59:27.859Z,7.70
2022-10-20T11:00:27.823Z,11.00
2022-10-20T11:01:27.820Z,10.60
2022-10-20T11:02:27.807Z,8.30
2022-10-20T11:03:27.835Z,9.70
2022-10-20T11:04:27.794Z,6.70
2022-10-20T11:05:27.788Z,10.70
2022-10-20T11:06:27.780Z,7.50
2022-10-20T11:07:27.772Z,9.00
2022-10-20T11:08:27.832Z,10.10
2022-10-20T11:09:27.779Z,7.50
2022-10-20T11:10:27.749Z,12.70
2022-10-20T11:11:27.739Z,9.10
2022-10-20T11:12:27.732Z,7.00
2022-10-20T11:13:27.739Z,7.50
2022-10-20T11:14:27.740Z,9.00
2022-10-20T11:15:27.708Z,9.70
2022-10-20T11:16:27.698Z,7.20
2022-10-20T11:17:27.691Z,8.40
2022-10-20T11:18:27.684Z,6.20
2022-10-20T11:19:27.702Z,12.80
2022-10-20T11:20:27.667Z,9.30
2022-10-20T11:21:27.662Z,6.10
2022-10-20T11:22:27.651Z,7.60
2022-10-20T11:23:27.695Z,7.50
2022-10-20T11:24:27.666Z,6.20
2022-10-20T11:25:27.623Z,7.20
2022-10-20T11:26:29.203Z,6.80
2022-10-20T11:27:27.610Z,5.50
2022-10-20T11:28:27.601Z,10.90
2022-10-20T11:29:27.621Z,7.50
2022-10-20T11:30:27.598Z,8.50
2022-10-20T11:31:27.596Z,7.20
2022-10-20T11:32:27.613Z,7.00
2022-10-20T11:33:27.566Z,6.90
2022-10-20T11:34:27.554Z,7.50
2022-10-20T11:35:27.574Z,8.90
2022-10-20T11:36:27.543Z,8.80
2022-10-20T11:37:27.580Z,6.80
2022-10-20T11:38:27.519Z,9.70
2022-10-20T11:39:28.521Z,7.00
2022-10-20T11:40:27.536Z,6.50
2022-10-20T11:41:27.507Z,6.90
2022-10-20T11:42:27.506Z,8.70
2022-10-20T11:43:27.489Z,7.00
2022-10-20T11:44:27.476Z,8.80
2022-10-20T11:45:27.494Z,7.40
2022-10-20T11:46:27.462Z,8.10
2022-10-20T11:47:27.454Z,7.00
2022-10-20T11:48:27.447Z,5.80
2022-10-20T11:49:27.438Z,7.40
2022-10-20T11:50:27.454Z,7.20
2022-10-20T11:51:27.426Z,6.60
2022-10-20T11:52:27.412Z,6.10
2022-10-20T11:53:27.406Z,10.60
2022-10-20T11:54:27.400Z,7.10
2022-10-20T11:55:27.417Z,5.90
2022-10-20T11:56:27.388Z,7.30
2022-10-20T11:57:27.373Z,8.00
2022-10-20T11:58:27.368Z,6.10
2022-10-20T11:59:27.361Z,9.10
2022-10-20T12:00:27.378Z,5.60
2022-10-20T12:01:27.347Z,6.90
2022-10-20T12:02:27.339Z,6.50
2022-10-20T12:03:27.330Z,6.60
2022-10-20T12:04:27.343Z,6.20
2022-10-20T12:05:27.306Z,7.00
2022-10-20T12:06:28.307Z,7.40
2022-10-20T12:07:27.298Z,8.00
2022-10-20T12:08:30.939Z,8.20
2022-10-20T12:10:27.278Z,9.50
2022-10-20T12:11:27.270Z,9.50
2022-10-20T12:12:27.258Z,7.60
2022-10-20T12:13:27.251Z,8.30
2022-10-20T12:14:27.268Z,10.10
2022-10-20T12:15:27.234Z,8.80
2022-10-20T12:16:27.238Z,6.60
2022-10-20T12:17:27.222Z,9.60
2022-10-20T12:18:27.214Z,10.80
2022-10-20T12:19:27.232Z,9.60
2022-10-20T12:20:27.199Z,6.60
2022-10-20T12:21:30.180Z,9.00
2022-10-20T12:22:28.181Z,7.40
2022-10-20T12:23:27.175Z,6.50
2022-10-20T12:24:27.196Z,9.00
2022-10-20T12:25:27.163Z,7.10
2022-10-20T12:26:27.163Z,6.60
2022-10-20T12:27:27.143Z,7.40
2022-10-20T12:28:27.161Z,9.40
2022-10-20T12:29:27.155Z,8.30
2022-10-20T12:30:27.119Z,8.30
2022-10-20T12:31:27.112Z,9.80
2022-10-20T12:32:27.102Z,9.10
2022-10-20T12:33:27.094Z,8.30
2022-10-20T12:34:27.120Z,12.20
2022-10-20T12:35:27.077Z,8.20
2022-10-20T12:36:27.080Z,12.90
2022-10-20T12:37:27.061Z,8.20
2022-10-20T12:38:27.055Z,13.00
2022-10-20T12:39:27.034Z,9.50
2022-10-20T12:40:28.061Z,12.30
2022-10-20T12:41:27.031Z,10.60
2022-10-20T12:42:27.017Z,13.20
2022-10-20T12:43:27.013Z,10.00
2022-10-20T12:44:27.006Z,8.00
2022-10-20T12:45:27.028Z,9.60
2022-10-20T12:46:26.992Z,10.50
2022-10-20T12:47:27.009Z,8.60
2022-10-20T12:48:26.975Z,9.10
2022-10-20T12:49:26.965Z,9.70
2022-10-20T12:50:26.983Z,8.90
2022-10-20T12:51:26.948Z,8.20
2022-10-20T12:52:26.942Z,10.40
2022-10-20T12:53:26.932Z,12.50
2022-10-20T12:54:26.933Z,8.70
2022-10-20T12:55:27.044Z,8.80
2022-10-20T12:56:26.911Z,10.70
2022-10-20T12:57:26.904Z,8.00
2022-10-20T12:58:26.893Z,7.90
2022-10-20T12:59:26.888Z,9.70
2022-10-20T13:00:26.945Z,7.80
2022-10-20T13:01:26.865Z,9.90
2022-10-20T13:02:26.861Z,8.00
2022-10-20T13:03:26.850Z,7.70
2022-10-20T13:05:26.865Z,11.40